createdAt,value
2022-08-10T00:00:23.216Z,44.12
2022-08-10T00:02:59.195Z,44.17
2022-08-10T00:05:43.492Z,44.25
2022-08-10T00:08:26.198Z,43.72
2022-08-10T00:10:59.137Z,44.05
2022-08-10T00:13:32.105Z,44.03
2022-08-10T00:16:05.489Z,43.71
2022-08-10T00:18:39.568Z,44.18
2022-08-10T00:21:12.363Z,44.17
2022-08-10T00:23:45.085Z,44.10
2022-08-10T00:26:17.912Z,44.05
2022-08-10T00:28:51.213Z,44.09
2022-08-10T00:31:23.911Z,44.30
2022-08-10T00:33:58.051Z,44.10
2022-08-10T00:36:31.886Z,44.10
2022-08-10T00:39:07.947Z,43.90
2022-08-10T00:41:44.688Z,43.94
2022-08-10T00:44:17.463Z,43.86
2022-08-10T00:46:50.172Z,44.10
2022-08-10T00:49:24.724Z,44.23
2022-08-10T00:51:57.710Z,43.85
2022-08-10T00:54:30.601Z,43.84
2022-08-10T00:57:17.999Z,43.76
2022-08-10T00:59:59.094Z,43.94
2022-08-10T01:02:33.577Z,43.97
2022-08-10T01:05:10.117Z,44.13
2022-08-10T01:08:10.252Z,44.00
2022-08-10T01:10:48.644Z,43.83
2022-08-10T01:13:27.328Z,44.41
2022-08-10T01:16:05.556Z,44.23
2022-08-10T01:18:44.485Z,43.90
2022-08-10T01:21:59.789Z,44.21
2022-08-10T01:25:06.807Z,44.20
2022-08-10T01:27:52.868Z,44.10
2022-08-10T01:30:31.177Z,44.28
2022-08-10T01:33:08.842Z,44.12
2022-08-10T01:35:48.284Z,44.04
2022-08-10T01:38:25.405Z,44.20
2022-08-10T01:41:06.114Z,44.38
2022-08-10T01:43:42.781Z,44.08
2022-08-10T01:46:20.249Z,44.09
2022-08-10T01:48:56.139Z,44.17
2022-08-10T01:51:33.721Z,44.56
2022-08-10T01:54:12.806Z,44.39
2022-08-10T01:56:49.586Z,44.32
2022-08-10T01:59:26.930Z,44.13
2022-08-10T02:02:05.171Z,44.38
2022-08-10T02:04:41.393Z,44.42
2022-08-10T02:07:17.737Z,44.14
2022-08-10T02:09:53.800Z,44.19
2022-08-10T02:12:31.049Z,44.49
2022-08-10T02:15:07.983Z,44.19
2022-08-10T02:17:57.545Z,44.13
2022-08-10T02:20:36.064Z,44.28
2022-08-10T02:23:13.881Z,44.22
2022-08-10T02:25:48.314Z,44.25
2022-08-10T02:28:30.404Z,44.03
2022-08-10T02:31:11.491Z,44.54
2022-08-10T02:33:56.633Z,44.49
2022-08-10T02:36:35.205Z,44.49
2022-08-10T02:39:09.153Z,44.66
2022-08-10T02:45:13.775Z,44.42
2022-08-10T02:45:24.427Z,44.61
2022-08-10T02:47:50.723Z,44.37
2022-08-10T02:50:29.873Z,44.57
2022-08-10T02:53:06.233Z,44.55
2022-08-10T02:55:45.949Z,44.37
2022-08-10T02:58:27.090Z,44.38
2022-08-10T03:01:04.764Z,44.51
2022-08-10T03:03:43.893Z,44.60
2022-08-10T03:06:21.799Z,44.29
2022-08-10T03:08:56.242Z,44.19
2022-08-10T03:12:35.733Z,44.55
2022-08-10T03:14:26.951Z,44.56
2022-08-10T03:17:01.890Z,44.48
2022-08-10T03:20:33.366Z,44.65
2022-08-10T03:22:31.527Z,44.52
2022-08-10T03:25:05.089Z,44.55
2022-08-10T03:27:38.194Z,44.48
2022-08-10T03:30:29.343Z,44.66
2022-08-10T03:33:06.177Z,44.57
2022-08-10T03:35:39.061Z,44.30
2022-08-10T03:38:13.165Z,44.42
2022-08-10T03:40:49.033Z,44.59
2022-08-10T03:43:23.444Z,44.65
2022-08-10T03:46:00.143Z,44.87
2022-08-10T03:48:49.228Z,44.99
2022-08-10T03:51:24.224Z,45.36
2022-08-10T03:54:05.065Z,45.17
2022-08-10T03:56:41.824Z,45.19
2022-08-10T03:59:17.707Z,44.91
2022-08-10T04:02:41.989Z,45.16
2022-08-10T04:04:44.885Z,45.10
2022-08-10T04:07:17.772Z,45.28
2022-08-10T04:09:56.002Z,45.24
2022-08-10T04:12:29.100Z,45.41
2022-08-10T04:15:01.860Z,45.48
2022-08-10T04:18:04.121Z,45.53
2022-08-10T04:20:34.878Z,45.52
2022-08-10T04:23:12.116Z,45.54
2022-08-10T04:25:46.562Z,45.77
2022-08-10T04:28:20.233Z,45.79
2022-08-10T04:30:55.696Z,45.65
2022-08-10T04:33:31.056Z,45.49
2022-08-10T04:36:05.865Z,45.40
2022-08-10T04:38:40.311Z,45.63
2022-08-10T04:41:15.258Z,45.66
2022-08-10T04:43:48.169Z,45.66
2022-08-10T04:46:56.061Z,45.50
2022-08-10T04:49:54.283Z,45.97
2022-08-10T04:52:07.621Z,46.02
2022-08-10T04:54:40.316Z,46.34
2022-08-10T04:57:15.730Z,46.35
2022-08-10T04:59:48.590Z,46.22
2022-08-10T05:02:31.026Z,46.36
2022-08-10T05:05:04.360Z,46.09
2022-08-10T05:07:51.483Z,46.23
2022-08-10T05:10:27.068Z,46.58
2022-08-10T05:13:01.111Z,46.64
2022-08-10T05:15:33.818Z,46.38
2022-08-10T05:18:10.039Z,46.22
2022-08-10T05:20:47.342Z,47.24
2022-08-10T05:23:22.916Z,46.38
2022-08-10T05:25:55.607Z,46.90
2022-08-10T05:28:30.786Z,47.24
2022-08-10T05:31:08.206Z,47.88
2022-08-10T05:33:40.997Z,47.64
2022-08-10T05:36:14.779Z,47.35
2022-08-10T05:38:48.412Z,47.11
2022-08-10T05:41:21.681Z,47.30
2022-08-10T05:43:55.730Z,47.35
2022-08-10T05:46:28.446Z,47.16
2022-08-10T05:49:01.971Z,48.17
2022-08-10T05:51:36.430Z,48.16
2022-08-10T05:54:14.931Z,47.37
2022-08-10T05:56:53.235Z,48.03
2022-08-10T06:00:11.251Z,47.98
2022-08-10T06:02:35.363Z,48.01
2022-08-10T06:05:10.694Z,49.09
2022-08-10T06:07:48.149Z,47.72
2022-08-10T06:10:31.122Z,47.68
2022-08-10T06:13:34.364Z,47.59
2022-08-10T06:16:11.959Z,48.04
2022-08-10T06:18:45.017Z,48.21
2022-08-10T06:21:18.830Z,48.46
2022-08-10T06:23:53.915Z,49.12
2022-08-10T06:26:26.619Z,48.30
2022-08-10T06:29:15.891Z,48.06
2022-08-10T06:31:52.170Z,48.16
2022-08-10T06:34:28.665Z,48.40
2022-08-10T06:37:04.124Z,48.65
2022-08-10T06:39:37.572Z,49.38
2022-08-10T06:42:18.055Z,48.86
2022-08-10T06:45:01.516Z,48.74
2022-08-10T06:47:42.489Z,48.92
2022-08-10T06:50:44.979Z,49.07
2022-08-10T06:53:15.014Z,49.82
2022-08-10T06:55:57.137Z,48.82
2022-08-10T06:58:35.111Z,48.89
2022-08-10T07:01:13.293Z,49.61
2022-08-10T07:03:54.823Z,48.76
2022-08-10T07:06:29.512Z,49.41
2022-08-10T07:09:03.635Z,49.20
2022-08-10T07:11:37.846Z,48.00
2022-08-10T07:14:17.198Z,49.32
2022-08-10T07:16:52.040Z,48.65
2022-08-10T07:19:28.175Z,48.98
2022-08-10T07:22:02.553Z,48.74
2022-08-10T07:24:36.630Z,48.73
2022-08-10T07:27:10.767Z,49.06
2022-08-10T07:29:54.510Z,48.86
2022-08-10T07:32:28.325Z,48.95
2022-08-10T07:35:03.883Z,48.69
2022-08-10T07:37:37.887Z,48.98
2022-08-10T07:40:13.942Z,47.98
2022-08-10T07:42:49.195Z,48.94
2022-08-10T07:45:22.275Z,48.43
2022-08-10T07:48:03.686Z,48.37
2022-08-10T07:50:42.297Z,48.57
2022-08-10T07:53:24.097Z,47.14
2022-08-10T07:56:03.587Z,47.60
2022-08-10T07:58:51.820Z,49.61
2022-08-10T08:01:32.898Z,46.69
2022-08-10T08:04:11.678Z,48.55
2022-08-10T08:06:47.942Z,46.91
2022-08-10T08:09:22.358Z,48.23
2022-08-10T08:11:56.500Z,47.52
2022-08-10T08:14:30.867Z,47.88
2022-08-10T08:17:03.834Z,46.13
2022-08-10T08:19:45.843Z,48.29
2022-08-10T08:24:14.654Z,47.07
2022-08-10T08:25:21.096Z,47.87
2022-08-10T08:27:56.298Z,47.24
2022-08-10T08:30:30.081Z,45.76
2022-08-10T08:33:04.058Z,46.36
2022-08-10T08:35:37.239Z,46.13
2022-08-10T08:38:33.505Z,45.83
2022-08-10T08:41:37.355Z,45.97
2022-08-10T08:44:16.394Z,45.14
2022-08-10T08:48:04.720Z,45.02
2022-08-10T08:50:20.973Z,44.21
2022-08-10T08:53:21.396Z,43.11
2022-08-10T08:56:06.992Z,42.94
2022-08-10T08:58:52.507Z,42.81
2022-08-10T09:01:42.379Z,41.56
2022-08-10T09:04:28.557Z,41.60
2022-08-10T09:07:59.212Z,41.22
2022-08-10T09:10:25.721Z,41.09
2022-08-10T09:13:07.851Z,40.18
2022-08-10T09:15:47.890Z,40.31
2022-08-10T09:18:26.922Z,39.52
2022-08-10T09:21:05.198Z,39.32
2022-08-10T09:24:04.919Z,38.87
2022-08-10T09:26:46.662Z,38.25
2022-08-10T09:29:26.844Z,38.26
2022-08-10T09:36:15.445Z,37.78
2022-08-10T09:36:25.986Z,38.03
2022-08-10T09:38:12.504Z,39.42
2022-08-10T09:41:02.256Z,38.40
2022-08-10T09:43:44.658Z,37.66
2022-08-10T09:46:33.361Z,37.17
2022-08-10T09:49:17.403Z,36.25
2022-08-10T09:52:13.913Z,35.99
2022-08-10T09:55:01.164Z,35.43
2022-08-10T09:57:41.348Z,34.94
2022-08-10T10:00:20.821Z,34.91
2022-08-10T10:03:09.474Z,34.02
2022-08-10T10:05:50.295Z,34.58
2022-08-10T10:08:31.232Z,34.45
2022-08-10T10:11:10.778Z,33.77
2022-08-10T10:14:03.353Z,33.88
2022-08-10T10:16:56.393Z,32.69
2022-08-10T10:19:51.458Z,33.76
2022-08-10T10:22:41.803Z,32.58
2022-08-10T10:25:22.980Z,32.35
2022-08-10T10:28:10.738Z,31.65
2022-08-10T10:30:56.780Z,32.04
2022-08-10T10:33:36.882Z,31.59
2022-08-10T10:36:12.077Z,31.60
2022-08-10T10:38:46.583Z,31.17
2022-08-10T10:41:55.973Z,30.44
2022-08-10T10:44:41.937Z,29.65
2022-08-10T10:47:34.098Z,29.29
2022-08-10T10:50:13.230Z,29.40
2022-08-10T10:52:58.685Z,28.85
2022-08-10T10:56:13.896Z,29.68
2022-08-10T10:58:37.903Z,29.41
2022-08-10T11:01:16.733Z,28.80
2022-08-10T11:04:04.855Z,28.46
2022-08-10T11:06:50.402Z,28.01
2022-08-10T11:10:04.772Z,27.71
2022-08-10T11:12:30.458Z,26.39
2022-08-10T11:15:10.006Z,26.28
2022-08-10T11:17:49.773Z,26.99
2022-08-10T11:20:27.713Z,25.79
2022-08-10T11:23:14.715Z,26.55
2022-08-10T11:25:56.887Z,26.81
2022-08-10T11:28:38.096Z,25.75
2022-08-10T11:31:18.838Z,25.58
2022-08-10T11:34:47.021Z,25.58
2022-08-10T11:36:59.998Z,25.36
2022-08-10T11:39:48.827Z,25.37
2022-08-10T11:42:35.909Z,25.59
2022-08-10T11:45:13.377Z,25.21
2022-08-10T11:47:51.594Z,25.00
2022-08-10T11:50:27.072Z,23.81
2022-08-10T11:53:10.682Z,24.96
2022-08-10T11:55:49.284Z,24.37
2022-08-10T11:58:43.114Z,24.82
2022-08-10T12:01:20.839Z,24.76
2022-08-10T12:03:54.663Z,24.16
2022-08-10T12:06:54.101Z,23.84
2022-08-10T12:10:09.094Z,25.01
2022-08-10T12:12:17.768Z,25.59
2022-08-10T12:14:58.305Z,24.99
2022-08-10T12:17:35.375Z,25.31
2022-08-10T12:20:11.187Z,25.12
2022-08-10T12:22:49.819Z,25.29
2022-08-10T12:25:55.807Z,24.77
2022-08-10T12:28:33.255Z,24.15
2022-08-10T12:31:24.225Z,23.77
2022-08-10T12:34:15.193Z,23.66
2022-08-10T12:36:58.619Z,24.50
2022-08-10T12:39:38.496Z,24.93
2022-08-10T12:42:39.391Z,24.57
2022-08-10T12:45:18.158Z,23.91
2022-08-10T12:48:06.416Z,23.60
2022-08-10T12:50:43.960Z,24.58
2022-08-10T12:53:26.330Z,23.37
2022-08-10T12:56:01.672Z,23.92
2022-08-10T12:58:59.245Z,22.58
2022-08-10T13:02:06.163Z,23.61
2022-08-10T13:04:30.646Z,23.58
2022-08-10T13:07:05.957Z,24.03
2022-08-10T13:09:56.318Z,23.69
2022-08-10T13:12:38.798Z,22.82
2022-08-10T13:15:25.440Z,22.17
2022-08-10T13:18:18.265Z,22.34
2022-08-10T13:20:55.876Z,22.83
2022-08-10T13:23:31.828Z,23.33
2022-08-10T13:26:05.834Z,22.88
2022-08-10T13:28:47.173Z,21.77
2022-08-10T13:32:03.625Z,21.53
2022-08-10T13:34:41.300Z,22.32
2022-08-10T13:37:20.251Z,21.92
2022-08-10T13:39:59.513Z,22.28
2022-08-10T13:42:37.693Z,21.64
2022-08-10T13:45:14.409Z,21.33
2022-08-10T13:47:50.694Z,21.96
2022-08-10T13:50:34.543Z,21.48
2022-08-10T13:53:15.866Z,20.98
2022-08-10T13:55:54.515Z,20.73
2022-08-10T13:58:31.954Z,20.77
2022-08-10T14:01:11.183Z,21.00
2022-08-10T14:03:45.612Z,20.31
2022-08-10T14:06:23.636Z,20.70
2022-08-10T14:09:06.934Z,21.00
2022-08-10T14:11:43.055Z,20.25
2022-08-10T14:14:19.102Z,20.35
2022-08-10T14:16:52.685Z,20.71
2022-08-10T14:19:27.693Z,20.16
2022-08-10T14:22:02.765Z,20.50
2022-08-10T14:24:35.735Z,20.14
2022-08-10T14:27:11.470Z,20.31
2022-08-10T14:29:46.367Z,19.99
2022-08-10T14:32:22.820Z,20.74
2022-08-10T14:36:16.501Z,19.70
2022-08-10T14:37:58.477Z,20.31
2022-08-10T14:40:38.483Z,19.84
2022-08-10T14:43:16.253Z,20.11
2022-08-10T14:46:05.706Z,19.69
2022-08-10T14:48:41.857Z,20.04
2022-08-10T14:51:17.763Z,20.60
2022-08-10T14:53:55.438Z,21.27
2022-08-10T14:56:31.322Z,21.43
2022-08-10T14:59:07.625Z,21.65
2022-08-10T15:02:01.342Z,21.40
2022-08-10T15:04:38.613Z,21.24
2022-08-10T15:07:20.675Z,22.19
2022-08-10T15:10:00.884Z,22.00
2022-08-10T15:12:38.638Z,21.48
2022-08-10T15:15:18.008Z,21.43
2022-08-10T15:18:02.800Z,22.18
2022-08-10T15:20:37.929Z,21.79
2022-08-10T15:23:30.073Z,22.03
2022-08-10T15:26:11.093Z,21.38
2022-08-10T15:29:23.859Z,21.04
2022-08-10T15:32:00.016Z,21.92
2022-08-10T15:34:52.829Z,21.67
2022-08-10T15:37:39.211Z,21.83
2022-08-10T15:40:22.577Z,22.55
2022-08-10T15:43:05.574Z,22.02
2022-08-10T15:46:02.322Z,22.37
2022-08-10T15:48:40.152Z,22.09
2022-08-10T15:51:21.021Z,23.88
2022-08-10T15:54:01.895Z,24.98
2022-08-10T15:56:43.171Z,24.98
2022-08-10T15:59:27.928Z,25.42
2022-08-10T16:02:15.661Z,25.52
2022-08-10T16:04:53.254Z,25.78
2022-08-10T16:07:50.266Z,25.75
2022-08-10T16:10:29.405Z,26.00
2022-08-10T16:13:59.608Z,26.28
2022-08-10T16:16:05.867Z,26.02
2022-08-10T16:18:40.480Z,26.73
2022-08-10T16:21:18.308Z,26.57
2022-08-10T16:24:02.153Z,26.35
2022-08-10T16:26:55.469Z,26.85
2022-08-10T16:29:28.977Z,26.78
2022-08-10T16:32:05.343Z,27.42
2022-08-10T16:34:40.150Z,26.93
2022-08-10T16:37:16.144Z,27.62
2022-08-10T16:39:59.823Z,27.64
2022-08-10T16:42:35.822Z,27.51
2022-08-10T16:45:11.538Z,27.40
2022-08-10T16:47:48.926Z,27.68
2022-08-10T16:50:26.269Z,27.99
2022-08-10T16:53:02.305Z,27.72
2022-08-10T16:55:48.414Z,27.58
2022-08-10T16:58:27.351Z,28.12
2022-08-10T17:01:03.739Z,27.69
2022-08-10T17:04:06.513Z,29.44
2022-08-10T17:06:44.160Z,29.76
2022-08-10T17:09:19.835Z,29.26
2022-08-10T17:11:54.590Z,29.65
2022-08-10T17:14:29.910Z,31.29
2022-08-10T17:17:07.072Z,30.39
2022-08-10T17:19:44.945Z,30.10
2022-08-10T17:22:21.104Z,29.26
2022-08-10T17:24:58.339Z,29.99
2022-08-10T17:28:04.417Z,27.43
2022-08-10T17:30:34.374Z,26.96
2022-08-10T17:33:23.383Z,27.38
2022-08-10T17:36:03.729Z,26.92
2022-08-10T17:38:38.643Z,28.81
2022-08-10T17:41:13.779Z,28.58
2022-08-10T17:44:01.601Z,27.59
2022-08-10T17:46:38.741Z,27.37
2022-08-10T17:49:14.430Z,28.43
2022-08-10T17:51:54.413Z,27.44
2022-08-10T17:54:31.166Z,27.69
2022-08-10T17:57:10.618Z,28.08
2022-08-10T17:59:44.303Z,28.91
2022-08-10T18:02:20.593Z,28.16
2022-08-10T18:04:57.386Z,28.24
2022-08-10T18:07:35.363Z,27.99
2022-08-10T18:10:12.194Z,28.61
2022-08-10T18:12:48.328Z,29.35
2022-08-10T18:15:23.419Z,28.97
2022-08-10T18:18:00.499Z,29.37
2022-08-10T18:20:36.151Z,29.17
2022-08-10T18:23:11.211Z,29.08
2022-08-10T18:25:46.674Z,28.72
2022-08-10T18:28:21.031Z,28.97
2022-08-10T18:30:55.656Z,28.70
2022-08-10T18:33:33.526Z,28.86
2022-08-10T18:36:10.117Z,28.93
2022-08-10T18:38:47.096Z,29.01
2022-08-10T18:41:23.080Z,30.06
2022-08-10T18:44:07.647Z,29.68
2022-08-10T18:46:47.137Z,30.09
2022-08-10T18:49:29.990Z,29.76
2022-08-10T18:52:04.400Z,29.77
2022-08-10T18:54:45.682Z,30.87
2022-08-10T18:57:30.032Z,30.50
2022-08-10T19:00:13.707Z,30.71
2022-08-10T19:03:14.663Z,30.73
2022-08-10T19:05:58.703Z,31.00
2022-08-10T19:08:49.496Z,30.95
2022-08-10T19:11:38.863Z,31.95
2022-08-10T19:14:17.626Z,32.18
2022-08-10T19:16:58.804Z,31.33
2022-08-10T19:19:41.033Z,32.10
2022-08-10T19:22:22.659Z,32.07
2022-08-10T19:25:02.312Z,33.06
2022-08-10T19:27:57.792Z,32.93
2022-08-10T19:30:43.482Z,33.11
2022-08-10T19:33:29.250Z,33.39
2022-08-10T19:36:13.106Z,33.17
2022-08-10T19:38:53.622Z,33.38
2022-08-10T19:41:32.785Z,34.13
2022-08-10T19:44:27.254Z,34.04
2022-08-10T19:47:06.584Z,34.04
2022-08-10T19:49:47.310Z,34.30
2022-08-10T19:52:28.019Z,34.81
2022-08-10T19:58:16.421Z,34.62
2022-08-10T20:00:58.587Z,35.51
2022-08-10T20:03:41.506Z,35.86
2022-08-10T20:06:20.420Z,35.55
2022-08-10T20:08:57.810Z,36.45
2022-08-10T20:11:45.971Z,36.37
2022-08-10T20:14:23.665Z,36.23
2022-08-10T20:17:03.324Z,37.05
2022-08-10T20:19:52.546Z,37.46
2022-08-10T20:22:30.821Z,37.25
2022-08-10T20:25:14.062Z,37.60
2022-08-10T20:28:01.280Z,37.17
2022-08-10T20:30:36.995Z,38.39
2022-08-10T20:33:18.263Z,38.38
2022-08-10T20:35:56.740Z,38.44
2022-08-10T20:38:35.013Z,38.58
2022-08-10T20:41:17.253Z,38.84
2022-08-10T20:44:01.276Z,38.59
2022-08-10T20:46:43.084Z,39.43
2022-08-10T20:49:29.683Z,38.72
2022-08-10T20:52:04.147Z,37.24
2022-08-10T20:54:43.060Z,36.81
2022-08-10T20:57:55.222Z,36.51
2022-08-10T21:00:23.340Z,36.33
2022-08-10T21:03:15.713Z,36.10
2022-08-10T21:06:09.787Z,35.85
2022-08-10T21:08:50.362Z,35.93
2022-08-10T21:11:35.569Z,35.71
2022-08-10T21:14:29.377Z,35.60
2022-08-10T21:17:17.006Z,35.71
2022-08-10T21:20:09.093Z,36.07
2022-08-10T21:22:47.868Z,35.66
2022-08-10T21:25:29.387Z,36.28
2022-08-10T21:28:30.259Z,36.40
2022-08-10T21:31:22.011Z,36.16
2022-08-10T21:34:11.424Z,36.54
2022-08-10T21:36:52.960Z,36.66
2022-08-10T21:39:50.645Z,36.87
2022-08-10T21:42:52.919Z,36.47
2022-08-10T21:45:58.964Z,36.60
2022-08-10T21:48:59.065Z,37.21
2022-08-10T21:52:01.635Z,37.49
2022-08-10T21:55:03.581Z,37.53
2022-08-10T21:58:05.083Z,37.53
2022-08-10T22:01:00.603Z,37.68
2022-08-10T22:03:54.062Z,40.12
2022-08-10T22:06:52.344Z,38.00
2022-08-10T22:09:47.648Z,38.09
2022-08-10T22:12:51.267Z,38.46
2022-08-10T22:15:42.507Z,40.16
2022-08-10T22:19:01.939Z,38.83
2022-08-10T22:22:27.015Z,39.02
2022-08-10T22:25:30.127Z,40.99
2022-08-10T22:28:25.319Z,39.76
2022-08-10T22:31:32.328Z,40.29
2022-08-10T22:34:33.595Z,40.03
2022-08-10T22:37:42.202Z,40.29
2022-08-10T22:40:37.733Z,41.93
2022-08-10T22:43:38.630Z,41.67
2022-08-10T22:46:36.721Z,40.29
2022-08-10T22:49:09.177Z,40.02
2022-08-10T22:51:54.548Z,42.31
2022-08-10T22:54:51.235Z,40.92
2022-08-10T22:57:42.532Z,40.87
2022-08-10T23:00:19.408Z,41.27
2022-08-10T23:02:55.865Z,41.99
2022-08-10T23:05:33.354Z,41.24
2022-08-10T23:08:19.568Z,42.19
2022-08-10T23:11:07.510Z,41.42
2022-08-10T23:13:44.498Z,43.01
2022-08-10T23:16:39.755Z,41.81
2022-08-10T23:19:18.668Z,42.96
2022-08-10T23:22:03.840Z,41.76
2022-08-10T23:24:42.810Z,43.30
2022-08-10T23:27:37.306Z,42.05
2022-08-10T23:30:18.104Z,43.19
2022-08-10T23:33:00.677Z,42.82
2022-08-10T23:36:28.094Z,41.60
2022-08-10T23:38:41.980Z,42.29
2022-08-10T23:41:14.805Z,41.96
2022-08-10T23:44:03.763Z,42.02
2022-08-10T23:46:41.022Z,41.86
2022-08-10T23:49:15.663Z,41.57
2022-08-10T23:51:55.148Z,42.07
2022-08-10T23:54:30.742Z,41.56
2022-08-10T23:57:04.418Z,41.61
2022-08-10T23:59:38.428Z,43.05
